sensor_id;sensor_type;location;lat;lon;timestamp;P1;durP1;ratioP1;P2;durP2;ratioP2
35114;SDS011;21292;52.416;13.046;2022-09-29T00:00:59;18.35;;;10.68;;
35114;SDS011;21292;52.416;13.046;2022-09-29T00:03:28;18.70;;;10.73;;
35114;SDS011;21292;52.416;13.046;2022-09-29T00:05:56;18.13;;;10.52;;
35114;SDS011;21292;52.416;13.046;2022-09-29T00:08:25;19.90;;;11.07;;
35114;SDS011;21292;52.416;13.046;2022-09-29T00:10:54;18.55;;;10.77;;
35114;SDS011;21292;52.416;13.046;2022-09-29T00:13:22;21.33;;;11.82;;
35114;SDS011;21292;52.416;13.046;2022-09-29T00:15:55;20.33;;;11.18;;
35114;SDS011;21292;52.416;13.046;2022-09-29T00:18:24;21.63;;;10.23;;
35114;SDS011;21292;52.416;13.046;2022-09-29T00:20:56;15.77;;;10.38;;
35114;SDS011;21292;52.416;13.046;2022-09-29T00:26:00;24.27;;;11.52;;
35114;SDS011;21292;52.416;13.046;2022-09-29T00:28:29;15.60;;;9.32;;
35114;SDS011;21292;52.416;13.046;2022-09-29T00:30:58;16.33;;;10.18;;
35114;SDS011;21292;52.416;13.046;2022-09-29T00:33:28;17.50;;;10.90;;
35114;SDS011;21292;52.416;13.046;2022-09-29T00:35:57;20.77;;;10.60;;
35114;SDS011;21292;52.416;13.046;2022-09-29T00:38:27;20.90;;;11.27;;
35114;SDS011;21292;52.416;13.046;2022-09-29T00:40:55;17.45;;;11.30;;
35114;SDS011;21292;52.416;13.046;2022-09-29T00:48:46;22.50;;;10.63;;
35114;SDS011;21292;52.416;13.046;2022-09-29T00:51:15;20.33;;;11.25;;
35114;SDS011;21292;52.416;13.046;2022-09-29T00:53:44;23.65;;;12.77;;
35114;SDS011;21292;52.416;13.046;2022-09-29T00:56:12;21.33;;;12.32;;
35114;SDS011;21292;52.416;13.046;2022-09-29T00:58:42;24.30;;;12.45;;
35114;SDS011;21292;52.416;13.046;2022-09-29T01:01:18;25.23;;;13.40;;
35114;SDS011;21292;52.416;13.046;2022-09-29T01:03:46;22.83;;;13.15;;
35114;SDS011;21292;52.416;13.046;2022-09-29T01:06:16;23.77;;;13.43;;
35114;SDS011;21292;52.416;13.046;2022-09-29T01:08:47;24.40;;;14.35;;
35114;SDS011;21292;52.416;13.046;2022-09-29T01:11:18;28.55;;;14.13;;
35114;SDS011;21292;52.416;13.046;2022-09-29T01:13:47;23.85;;;13.40;;
35114;SDS011;21292;52.416;13.046;2022-09-29T01:16:15;26.88;;;14.43;;
35114;SDS011;21292;52.416;13.046;2022-09-29T01:18:45;29.40;;;14.52;;
35114;SDS011;21292;52.416;13.046;2022-09-29T01:21:15;31.17;;;16.05;;
35114;SDS011;21292;52.416;13.046;2022-09-29T01:24:01;29.83;;;16.30;;
35114;SDS011;21292;52.416;13.046;2022-09-29T01:26:50;32.03;;;17.10;;
35114;SDS011;21292;52.416;13.046;2022-09-29T01:32:42;31.60;;;17.50;;
35114;SDS011;21292;52.416;13.046;2022-09-29T01:35:19;32.30;;;17.58;;
35114;SDS011;21292;52.416;13.046;2022-09-29T01:37:53;36.97;;;18.30;;
35114;SDS011;21292;52.416;13.046;2022-09-29T01:40:28;31.55;;;17.20;;
35114;SDS011;21292;52.416;13.046;2022-09-29T01:43:03;36.40;;;18.67;;
35114;SDS011;21292;52.416;13.046;2022-09-29T01:45:33;37.05;;;19.38;;
35114;SDS011;21292;52.416;13.046;2022-09-29T01:48:05;41.20;;;19.73;;
35114;SDS011;21292;52.416;13.046;2022-09-29T01:50:34;38.22;;;19.73;;
35114;SDS011;21292;52.416;13.046;2022-09-29T01:53:07;40.58;;;19.67;;
35114;SDS011;21292;52.416;13.046;2022-09-29T01:55:37;42.72;;;19.73;;
35114;SDS011;21292;52.416;13.046;2022-09-29T01:58:09;38.95;;;19.95;;
35114;SDS011;21292;52.416;13.046;2022-09-29T02:00:40;42.05;;;18.73;;
35114;SDS011;21292;52.416;13.046;2022-09-29T02:03:14;44.50;;;19.48;;
35114;SDS011;21292;52.416;13.046;2022-09-29T02:05:45;35.42;;;18.35;;
35114;SDS011;21292;52.416;13.046;2022-09-29T02:08:17;39.88;;;19.83;;
35114;SDS011;21292;52.416;13.046;2022-09-29T02:10:49;46.17;;;21.08;;
35114;SDS011;21292;52.416;13.046;2022-09-29T02:15:49;38.45;;;18.50;;
35114;SDS011;21292;52.416;13.046;2022-09-29T02:18:21;43.28;;;20.70;;
35114;SDS011;21292;52.416;13.046;2022-09-29T02:20:51;38.38;;;19.60;;
35114;SDS011;21292;52.416;13.046;2022-09-29T02:23:19;44.58;;;19.40;;
35114;SDS011;21292;52.416;13.046;2022-09-29T02:25:47;38.75;;;19.42;;
35114;SDS011;21292;52.416;13.046;2022-09-29T02:28:17;40.60;;;18.85;;
35114;SDS011;21292;52.416;13.046;2022-09-29T02:30:46;40.05;;;20.80;;
35114;SDS011;21292;52.416;13.046;2022-09-29T02:33:21;38.83;;;19.95;;
35114;SDS011;21292;52.416;13.046;2022-09-29T02:35:53;50.15;;;21.45;;
35114;SDS011;21292;52.416;13.046;2022-09-29T02:38:28;48.83;;;19.95;;
35114;SDS011;21292;52.416;13.046;2022-09-29T02:41:02;44.08;;;20.40;;
35114;SDS011;21292;52.416;13.046;2022-09-29T02:43:38;44.90;;;20.10;;
35114;SDS011;21292;52.416;13.046;2022-09-29T02:46:18;40.13;;;20.33;;
35114;SDS011;21292;52.416;13.046;2022-09-29T02:49:00;41.95;;;20.33;;
35114;SDS011;21292;52.416;13.046;2022-09-29T02:51:35;43.05;;;20.80;;
35114;SDS011;21292;52.416;13.046;2022-09-29T02:54:08;43.03;;;19.60;;
35114;SDS011;21292;52.416;13.046;2022-09-29T02:56:43;41.22;;;19.20;;
35114;SDS011;21292;52.416;13.046;2022-09-29T03:01:48;41.28;;;19.27;;
35114;SDS011;21292;52.416;13.046;2022-09-29T03:04:19;44.17;;;19.15;;
35114;SDS011;21292;52.416;13.046;2022-09-29T03:06:49;47.88;;;21.65;;
35114;SDS011;21292;52.416;13.046;2022-09-29T03:09:17;42.17;;;20.00;;
35114;SDS011;21292;52.416;13.046;2022-09-29T03:11:45;43.08;;;20.83;;
35114;SDS011;21292;52.416;13.046;2022-09-29T03:14:13;44.20;;;21.10;;
35114;SDS011;21292;52.416;13.046;2022-09-29T03:16:42;42.63;;;20.92;;
35114;SDS011;21292;52.416;13.046;2022-09-29T03:19:10;42.35;;;21.80;;
35114;SDS011;21292;52.416;13.046;2022-09-29T03:21:39;40.42;;;19.83;;
35114;SDS011;21292;52.416;13.046;2022-09-29T03:24:07;45.70;;;21.63;;
35114;SDS011;21292;52.416;13.046;2022-09-29T03:26:35;44.38;;;21.08;;
35114;SDS011;21292;52.416;13.046;2022-09-29T03:29:03;44.13;;;21.35;;
35114;SDS011;21292;52.416;13.046;2022-09-29T03:31:32;46.13;;;22.08;;
35114;SDS011;21292;52.416;13.046;2022-09-29T03:34:00;48.45;;;22.90;;
35114;SDS011;21292;52.416;13.046;2022-09-29T03:36:28;39.75;;;18.98;;
35114;SDS011;21292;52.416;13.046;2022-09-29T03:38:57;44.03;;;21.30;;
35114;SDS011;21292;52.416;13.046;2022-09-29T03:41:25;45.42;;;20.15;;
35114;SDS011;21292;52.416;13.046;2022-09-29T03:43:53;41.05;;;20.23;;
35114;SDS011;21292;52.416;13.046;2022-09-29T03:46:21;44.63;;;19.83;;
35114;SDS011;21292;52.416;13.046;2022-09-29T03:48:49;42.42;;;21.63;;
35114;SDS011;21292;52.416;13.046;2022-09-29T03:51:17;49.25;;;21.58;;
35114;SDS011;21292;52.416;13.046;2022-09-29T03:53:45;50.47;;;22.45;;
35114;SDS011;21292;52.416;13.046;2022-09-29T03:56:14;44.78;;;20.25;;
35114;SDS011;21292;52.416;13.046;2022-09-29T03:58:42;42.97;;;22.27;;
35114;SDS011;21292;52.416;13.046;2022-09-29T04:01:10;48.55;;;21.55;;
35114;SDS011;21292;52.416;13.046;2022-09-29T04:03:39;47.20;;;23.38;;
35114;SDS011;21292;52.416;13.046;2022-09-29T04:06:07;42.85;;;21.38;;
35114;SDS011;21292;52.416;13.046;2022-09-29T04:08:35;44.40;;;21.75;;
35114;SDS011;21292;52.416;13.046;2022-09-29T04:11:04;48.72;;;21.05;;
35114;SDS011;21292;52.416;13.046;2022-09-29T04:13:33;40.83;;;20.85;;
35114;SDS011;21292;52.416;13.046;2022-09-29T04:16:02;45.63;;;21.17;;
35114;SDS011;21292;52.416;13.046;2022-09-29T04:18:31;44.40;;;21.33;;
35114;SDS011;21292;52.416;13.046;2022-09-29T04:21:03;47.67;;;22.40;;
35114;SDS011;21292;52.416;13.046;2022-09-29T04:23:32;44.95;;;21.58;;
35114;SDS011;21292;52.416;13.046;2022-09-29T04:26:00;48.22;;;22.73;;
35114;SDS011;21292;52.416;13.046;2022-09-29T04:28:31;46.20;;;22.60;;
35114;SDS011;21292;52.416;13.046;2022-09-29T04:31:01;52.00;;;21.97;;
35114;SDS011;21292;52.416;13.046;2022-09-29T04:33:29;49.80;;;22.30;;
35114;SDS011;21292;52.416;13.046;2022-09-29T04:35:57;50.72;;;23.63;;
35114;SDS011;21292;52.416;13.046;2022-09-29T04:38:26;43.50;;;21.55;;
35114;SDS011;21292;52.416;13.046;2022-09-29T04:40:54;42.40;;;22.25;;
35114;SDS011;21292;52.416;13.046;2022-09-29T04:43:22;44.67;;;21.63;;
35114;SDS011;21292;52.416;13.046;2022-09-29T04:45:50;46.40;;;22.70;;
35114;SDS011;21292;52.416;13.046;2022-09-29T04:48:19;48.67;;;23.55;;
35114;SDS011;21292;52.416;13.046;2022-09-29T04:50:47;47.08;;;23.60;;
35114;SDS011;21292;52.416;13.046;2022-09-29T04:53:16;46.17;;;23.55;;
35114;SDS011;21292;52.416;13.046;2022-09-29T04:55:44;47.50;;;21.88;;
35114;SDS011;21292;52.416;13.046;2022-09-29T04:58:12;48.35;;;23.23;;
35114;SDS011;21292;52.416;13.046;2022-09-29T05:00:41;48.08;;;23.42;;
35114;SDS011;21292;52.416;13.046;2022-09-29T05:03:09;44.75;;;22.42;;
35114;SDS011;21292;52.416;13.046;2022-09-29T05:05:38;55.38;;;25.20;;
35114;SDS011;21292;52.416;13.046;2022-09-29T05:08:07;44.65;;;21.70;;
35114;SDS011;21292;52.416;13.046;2022-09-29T05:10:35;57.13;;;24.83;;
35114;SDS011;21292;52.416;13.046;2022-09-29T05:13:03;44.05;;;21.88;;
35114;SDS011;21292;52.416;13.046;2022-09-29T05:15:31;44.70;;;21.60;;
35114;SDS011;21292;52.416;13.046;2022-09-29T05:18:02;52.25;;;24.23;;
35114;SDS011;21292;52.416;13.046;2022-09-29T05:20:30;47.78;;;22.63;;
35114;SDS011;21292;52.416;13.046;2022-09-29T05:23:11;50.83;;;22.45;;
35114;SDS011;21292;52.416;13.046;2022-09-29T05:25:39;53.50;;;24.65;;
35114;SDS011;21292;52.416;13.046;2022-09-29T05:28:09;50.90;;;24.88;;
35114;SDS011;21292;52.416;13.046;2022-09-29T05:30:37;47.38;;;23.65;;
35114;SDS011;21292;52.416;13.046;2022-09-29T05:33:05;47.08;;;24.30;;
35114;SDS011;21292;52.416;13.046;2022-09-29T05:35:33;48.95;;;24.13;;
35114;SDS011;21292;52.416;13.046;2022-09-29T05:38:01;50.75;;;23.85;;
35114;SDS011;21292;52.416;13.046;2022-09-29T05:40:31;45.03;;;23.88;;
35114;SDS011;21292;52.416;13.046;2022-09-29T05:42:59;46.53;;;21.60;;
35114;SDS011;21292;52.416;13.046;2022-09-29T05:45:27;50.85;;;23.92;;
35114;SDS011;21292;52.416;13.046;2022-09-29T05:47:55;48.88;;;23.02;;
35114;SDS011;21292;52.416;13.046;2022-09-29T05:50:23;48.85;;;23.52;;
35114;SDS011;21292;52.416;13.046;2022-09-29T05:52:51;46.38;;;23.02;;
35114;SDS011;21292;52.416;13.046;2022-09-29T05:55:19;49.53;;;24.25;;
35114;SDS011;21292;52.416;13.046;2022-09-29T05:57:49;50.33;;;23.70;;
35114;SDS011;21292;52.416;13.046;2022-09-29T06:00:17;50.13;;;24.33;;
35114;SDS011;21292;52.416;13.046;2022-09-29T06:02:45;45.25;;;21.98;;
35114;SDS011;21292;52.416;13.046;2022-09-29T06:05:13;46.72;;;23.75;;
35114;SDS011;21292;52.416;13.046;2022-09-29T06:07:40;49.45;;;23.33;;
35114;SDS011;21292;52.416;13.046;2022-09-29T06:10:08;47.38;;;22.65;;
35114;SDS011;21292;52.416;13.046;2022-09-29T06:12:36;51.95;;;25.27;;
35114;SDS011;21292;52.416;13.046;2022-09-29T06:15:06;50.65;;;23.45;;
35114;SDS011;21292;52.416;13.046;2022-09-29T06:17:35;44.33;;;23.25;;
35114;SDS011;21292;52.416;13.046;2022-09-29T06:20:03;45.75;;;21.70;;
35114;SDS011;21292;52.416;13.046;2022-09-29T06:22:32;41.55;;;21.30;;
35114;SDS011;21292;52.416;13.046;2022-09-29T06:25:01;45.28;;;22.65;;
35114;SDS011;21292;52.416;13.046;2022-09-29T06:27:29;45.80;;;22.92;;
35114;SDS011;21292;52.416;13.046;2022-09-29T06:29:57;42.50;;;22.45;;
35114;SDS011;21292;52.416;13.046;2022-09-29T06:32:27;39.70;;;20.83;;
35114;SDS011;21292;52.416;13.046;2022-09-29T06:34:55;42.65;;;22.35;;
35114;SDS011;21292;52.416;13.046;2022-09-29T06:37:41;46.67;;;23.10;;
35114;SDS011;21292;52.416;13.046;2022-09-29T06:40:12;43.13;;;21.90;;
35114;SDS011;21292;52.416;13.046;2022-09-29T06:42:40;40.38;;;21.58;;
35114;SDS011;21292;52.416;13.046;2022-09-29T06:45:08;40.80;;;22.65;;
35114;SDS011;21292;52.416;13.046;2022-09-29T06:47:38;41.35;;;21.08;;
35114;SDS011;21292;52.416;13.046;2022-09-29T06:50:06;44.05;;;21.75;;
35114;SDS011;21292;52.416;13.046;2022-09-29T06:52:46;38.08;;;20.13;;
35114;SDS011;21292;52.416;13.046;2022-09-29T06:55:29;38.25;;;21.15;;
35114;SDS011;21292;52.416;13.046;2022-09-29T06:57:57;41.40;;;20.88;;
35114;SDS011;21292;52.416;13.046;2022-09-29T07:00:30;43.15;;;21.77;;
35114;SDS011;21292;52.416;13.046;2022-09-29T07:02:59;35.53;;;20.08;;
35114;SDS011;21292;52.416;13.046;2022-09-29T07:05:27;38.05;;;19.30;;
35114;SDS011;21292;52.416;13.046;2022-09-29T07:07:56;36.03;;;19.30;;
35114;SDS011;21292;52.416;13.046;2022-09-29T07:10:27;33.03;;;17.77;;
35114;SDS011;21292;52.416;13.046;2022-09-29T07:12:55;34.58;;;18.33;;
35114;SDS011;21292;52.416;13.046;2022-09-29T07:15:23;36.03;;;19.98;;
35114;SDS011;21292;52.416;13.046;2022-09-29T07:17:57;35.67;;;18.17;;
35114;SDS011;21292;52.416;13.046;2022-09-29T07:20:28;33.85;;;19.35;;
35114;SDS011;21292;52.416;13.046;2022-09-29T07:22:56;37.88;;;18.77;;
35114;SDS011;21292;52.416;13.046;2022-09-29T07:25:24;38.17;;;18.65;;
35114;SDS011;21292;52.416;13.046;2022-09-29T07:28:12;31.10;;;18.33;;
35114;SDS011;21292;52.416;13.046;2022-09-29T07:30:40;36.95;;;20.00;;
35114;SDS011;21292;52.416;13.046;2022-09-29T07:33:08;36.22;;;21.05;;
35114;SDS011;21292;52.416;13.046;2022-09-29T07:35:38;35.30;;;19.10;;
35114;SDS011;21292;52.416;13.046;2022-09-29T07:38:06;35.25;;;19.40;;
35114;SDS011;21292;52.416;13.046;2022-09-29T07:40:34;37.53;;;18.98;;
35114;SDS011;21292;52.416;13.046;2022-09-29T07:43:02;34.15;;;18.77;;
35114;SDS011;21292;52.416;13.046;2022-09-29T07:45:30;30.15;;;17.35;;
35114;SDS011;21292;52.416;13.046;2022-09-29T07:47:59;35.20;;;18.55;;
35114;SDS011;21292;52.416;13.046;2022-09-29T07:50:27;33.30;;;19.42;;
35114;SDS011;21292;52.416;13.046;2022-09-29T07:52:56;30.90;;;18.15;;
35114;SDS011;21292;52.416;13.046;2022-09-29T07:55:24;33.40;;;19.30;;
35114;SDS011;21292;52.416;13.046;2022-09-29T07:57:53;30.60;;;17.60;;
35114;SDS011;21292;52.416;13.046;2022-09-29T08:00:23;27.88;;;17.85;;
35114;SDS011;21292;52.416;13.046;2022-09-29T08:02:51;32.38;;;18.65;;
35114;SDS011;21292;52.416;13.046;2022-09-29T08:05:20;28.30;;;16.48;;
35114;SDS011;21292;52.416;13.046;2022-09-29T08:07:49;31.00;;;18.02;;
35114;SDS011;21292;52.416;13.046;2022-09-29T08:10:20;26.85;;;16.73;;
35114;SDS011;21292;52.416;13.046;2022-09-29T08:12:48;28.95;;;17.00;;
35114;SDS011;21292;52.416;13.046;2022-09-29T08:15:16;27.00;;;15.68;;
35114;SDS011;21292;52.416;13.046;2022-09-29T08:17:44;28.58;;;17.42;;
35114;SDS011;21292;52.416;13.046;2022-09-29T08:20:12;26.48;;;16.25;;
35114;SDS011;21292;52.416;13.046;2022-09-29T08:22:40;31.27;;;16.23;;
35114;SDS011;21292;52.416;13.046;2022-09-29T08:25:08;26.67;;;15.98;;
35114;SDS011;21292;52.416;13.046;2022-09-29T08:27:37;29.58;;;16.60;;
35114;SDS011;21292;52.416;13.046;2022-09-29T08:30:19;25.95;;;15.90;;
35114;SDS011;21292;52.416;13.046;2022-09-29T08:32:50;27.92;;;15.52;;
35114;SDS011;21292;52.416;13.046;2022-09-29T08:35:18;24.27;;;14.98;;
35114;SDS011;21292;52.416;13.046;2022-09-29T08:37:46;26.00;;;15.15;;
35114;SDS011;21292;52.416;13.046;2022-09-29T08:40:14;25.38;;;14.52;;
35114;SDS011;21292;52.416;13.046;2022-09-29T08:42:49;25.00;;;15.80;;
35114;SDS011;21292;52.416;13.046;2022-09-29T08:45:24;26.63;;;15.93;;
35114;SDS011;21292;52.416;13.046;2022-09-29T08:47:56;23.38;;;14.50;;
35114;SDS011;21292;52.416;13.046;2022-09-29T08:50:47;23.77;;;13.97;;
35114;SDS011;21292;52.416;13.046;2022-09-29T08:53:19;21.77;;;13.55;;
35114;SDS011;21292;52.416;13.046;2022-09-29T08:55:56;19.35;;;13.10;;
35114;SDS011;21292;52.416;13.046;2022-09-29T08:58:26;19.60;;;12.63;;
35114;SDS011;21292;52.416;13.046;2022-09-29T09:00:57;19.20;;;12.70;;
35114;SDS011;21292;52.416;13.046;2022-09-29T09:03:36;15.95;;;11.38;;
35114;SDS011;21292;52.416;13.046;2022-09-29T09:06:30;18.50;;;12.15;;
35114;SDS011;21292;52.416;13.046;2022-09-29T09:09:12;18.30;;;12.82;;
35114;SDS011;21292;52.416;13.046;2022-09-29T09:11:52;18.40;;;12.57;;
35114;SDS011;21292;52.416;13.046;2022-09-29T09:17:31;18.75;;;13.32;;
35114;SDS011;21292;52.416;13.046;2022-09-29T09:20:16;23.23;;;11.65;;
35114;SDS011;21292;52.416;13.046;2022-09-29T09:22:50;15.75;;;11.85;;
35114;SDS011;21292;52.416;13.046;2022-09-29T09:25:25;16.13;;;10.15;;
35114;SDS011;21292;52.416;13.046;2022-09-29T09:27:58;14.82;;;9.65;;
35114;SDS011;21292;52.416;13.046;2022-09-29T09:30:36;12.25;;;8.88;;
35114;SDS011;21292;52.416;13.046;2022-09-29T09:33:06;14.30;;;9.13;;
35114;SDS011;21292;52.416;13.046;2022-09-29T09:35:57;11.32;;;9.27;;
35114;SDS011;21292;52.416;13.046;2022-09-29T09:38:33;11.50;;;8.43;;
35114;SDS011;21292;52.416;13.046;2022-09-29T09:41:08;12.70;;;9.40;;
35114;SDS011;21292;52.416;13.046;2022-09-29T09:43:38;13.70;;;10.57;;
35114;SDS011;21292;52.416;13.046;2022-09-29T09:46:12;10.55;;;8.05;;
35114;SDS011;21292;52.416;13.046;2022-09-29T09:48:45;8.35;;;6.75;;
35114;SDS011;21292;52.416;13.046;2022-09-29T09:51:26;10.13;;;7.40;;
35114;SDS011;21292;52.416;13.046;2022-09-29T09:54:00;10.43;;;7.95;;
35114;SDS011;21292;52.416;13.046;2022-09-29T09:56:37;10.50;;;7.82;;
35114;SDS011;21292;52.416;13.046;2022-09-29T09:59:16;10.38;;;7.05;;
35114;SDS011;21292;52.416;13.046;2022-09-29T10:01:53;9.95;;;7.38;;
35114;SDS011;21292;52.416;13.046;2022-09-29T10:04:21;11.27;;;6.18;;
35114;SDS011;21292;52.416;13.046;2022-09-29T10:06:50;9.68;;;6.55;;
35114;SDS011;21292;52.416;13.046;2022-09-29T10:09:18;11.40;;;7.38;;
35114;SDS011;21292;52.416;13.046;2022-09-29T10:11:47;7.93;;;6.60;;
35114;SDS011;21292;52.416;13.046;2022-09-29T10:14:16;8.00;;;6.45;;
35114;SDS011;21292;52.416;13.046;2022-09-29T10:16:49;7.90;;;6.32;;
35114;SDS011;21292;52.416;13.046;2022-09-29T10:19:22;9.82;;;7.03;;
35114;SDS011;21292;52.416;13.046;2022-09-29T10:21:50;7.18;;;5.70;;
35114;SDS011;21292;52.416;13.046;2022-09-29T10:24:20;8.75;;;6.53;;
35114;SDS011;21292;52.416;13.046;2022-09-29T10:26:51;8.82;;;5.88;;
35114;SDS011;21292;52.416;13.046;2022-09-29T10:29:22;7.68;;;6.07;;
35114;SDS011;21292;52.416;13.046;2022-09-29T10:32:00;9.57;;;6.40;;
35114;SDS011;21292;52.416;13.046;2022-09-29T10:34:31;9.43;;;5.90;;
35114;SDS011;21292;52.416;13.046;2022-09-29T10:37:00;6.35;;;5.53;;
35114;SDS011;21292;52.416;13.046;2022-09-29T10:39:37;5.85;;;4.50;;
35114;SDS011;21292;52.416;13.046;2022-09-29T10:42:14;5.72;;;4.65;;
35114;SDS011;21292;52.416;13.046;2022-09-29T10:44:45;6.05;;;5.03;;
35114;SDS011;21292;52.416;13.046;2022-09-29T10:47:17;5.75;;;4.55;;
35114;SDS011;21292;52.416;13.046;2022-09-29T10:49:50;5.43;;;3.72;;
35114;SDS011;21292;52.416;13.046;2022-09-29T10:52:35;4.32;;;3.75;;
35114;SDS011;21292;52.416;13.046;2022-09-29T10:55:04;6.22;;;4.53;;
35114;SDS011;21292;52.416;13.046;2022-09-29T10:57:32;4.97;;;3.85;;
35114;SDS011;21292;52.416;13.046;2022-09-29T11:00:01;4.20;;;3.65;;
35114;SDS011;21292;52.416;13.046;2022-09-29T11:02:32;5.65;;;3.90;;
35114;SDS011;21292;52.416;13.046;2022-09-29T11:05:04;5.55;;;4.40;;
35114;SDS011;21292;52.416;13.046;2022-09-29T11:07:43;7.40;;;4.65;;
35114;SDS011;21292;52.416;13.046;2022-09-29T11:10:20;5.30;;;4.05;;
35114;SDS011;21292;52.416;13.046;2022-09-29T11:12:54;6.38;;;4.13;;
35114;SDS011;21292;52.416;13.046;2022-09-29T11:15:27;4.63;;;3.70;;
35114;SDS011;21292;52.416;13.046;2022-09-29T11:17:59;5.95;;;3.50;;
35114;SDS011;21292;52.416;13.046;2022-09-29T11:20:30;4.72;;;3.88;;
35114;SDS011;21292;52.416;13.046;2022-09-29T11:23:01;5.93;;;4.47;;
35114;SDS011;21292;52.416;13.046;2022-09-29T11:25:38;4.40;;;3.67;;
35114;SDS011;21292;52.416;13.046;2022-09-29T11:28:17;4.85;;;4.03;;
35114;SDS011;21292;52.416;13.046;2022-09-29T11:30:56;6.80;;;4.00;;
35114;SDS011;21292;52.416;13.046;2022-09-29T11:33:36;5.20;;;4.00;;
35114;SDS011;21292;52.416;13.046;2022-09-29T11:36:12;5.07;;;3.67;;
35114;SDS011;21292;52.416;13.046;2022-09-29T11:38:47;7.22;;;3.78;;
35114;SDS011;21292;52.416;13.046;2022-09-29T11:41:29;3.50;;;3.10;;
35114;SDS011;21292;52.416;13.046;2022-09-29T11:44:12;4.75;;;3.42;;
35114;SDS011;21292;52.416;13.046;2022-09-29T11:46:54;4.22;;;3.40;;
35114;SDS011;21292;52.416;13.046;2022-09-29T11:49:35;5.32;;;3.90;;
35114;SDS011;21292;52.416;13.046;2022-09-29T11:52:17;5.90;;;3.60;;
35114;SDS011;21292;52.416;13.046;2022-09-29T11:55:01;4.05;;;3.50;;
35114;SDS011;21292;52.416;13.046;2022-09-29T11:57:50;4.78;;;3.22;;
35114;SDS011;21292;52.416;13.046;2022-09-29T12:00:25;4.05;;;3.13;;
35114;SDS011;21292;52.416;13.046;2022-09-29T12:05:50;4.35;;;2.47;;
35114;SDS011;21292;52.416;13.046;2022-09-29T12:08:30;3.30;;;2.70;;
35114;SDS011;21292;52.416;13.046;2022-09-29T12:11:09;4.68;;;2.72;;
35114;SDS011;21292;52.416;13.046;2022-09-29T12:14:03;2.63;;;2.42;;
35114;SDS011;21292;52.416;13.046;2022-09-29T12:16:37;3.78;;;2.47;;
35114;SDS011;21292;52.416;13.046;2022-09-29T12:19:07;2.65;;;1.92;;
35114;SDS011;21292;52.416;13.046;2022-09-29T12:21:38;4.40;;;2.53;;
35114;SDS011;21292;52.416;13.046;2022-09-29T12:24:12;3.80;;;2.60;;
35114;SDS011;21292;52.416;13.046;2022-09-29T12:26:42;2.65;;;2.45;;
35114;SDS011;21292;52.416;13.046;2022-09-29T12:29:19;2.38;;;2.17;;
35114;SDS011;21292;52.416;13.046;2022-09-29T12:31:53;4.68;;;2.30;;
35114;SDS011;21292;52.416;13.046;2022-09-29T12:34:23;3.67;;;2.00;;
35114;SDS011;21292;52.416;13.046;2022-09-29T12:36:56;2.60;;;2.30;;
35114;SDS011;21292;52.416;13.046;2022-09-29T12:39:32;2.97;;;2.20;;
35114;SDS011;21292;52.416;13.046;2022-09-29T12:42:09;3.97;;;2.45;;
35114;SDS011;21292;52.416;13.046;2022-09-29T12:44:56;2.70;;;2.20;;
35114;SDS011;21292;52.416;13.046;2022-09-29T12:47:47;4.85;;;2.33;;
35114;SDS011;21292;52.416;13.046;2022-09-29T12:52:50;2.17;;;1.73;;
35114;SDS011;21292;52.416;13.046;2022-09-29T12:55:24;2.33;;;2.13;;
35114;SDS011;21292;52.416;13.046;2022-09-29T12:57:57;2.63;;;1.90;;
35114;SDS011;21292;52.416;13.046;2022-09-29T13:00:26;2.67;;;1.92;;
35114;SDS011;21292;52.416;13.046;2022-09-29T13:03:08;2.40;;;1.80;;
35114;SDS011;21292;52.416;13.046;2022-09-29T13:12:00;4.78;;;2.60;;
35114;SDS011;21292;52.416;13.046;2022-09-29T13:17:50;2.10;;;1.90;;
35114;SDS011;21292;52.416;13.046;2022-09-29T13:20:30;2.20;;;1.90;;
35114;SDS011;21292;52.416;13.046;2022-09-29T13:23:15;3.53;;;2.40;;
35114;SDS011;21292;52.416;13.046;2022-09-29T13:26:17;2.90;;;2.03;;
35114;SDS011;21292;52.416;13.046;2022-09-29T13:29:11;2.92;;;1.98;;
35114;SDS011;21292;52.416;13.046;2022-09-29T13:31:42;2.33;;;1.75;;
35114;SDS011;21292;52.416;13.046;2022-09-29T13:34:17;1.83;;;1.60;;
35114;SDS011;21292;52.416;13.046;2022-09-29T13:36:50;3.22;;;2.35;;
35114;SDS011;21292;52.416;13.046;2022-09-29T13:39:19;2.42;;;1.95;;
35114;SDS011;21292;52.416;13.046;2022-09-29T13:41:51;1.83;;;1.58;;
35114;SDS011;21292;52.416;13.046;2022-09-29T13:46:51;1.90;;;1.70;;
35114;SDS011;21292;52.416;13.046;2022-09-29T13:49:27;2.88;;;1.88;;
35114;SDS011;21292;52.416;13.046;2022-09-29T13:51:57;1.75;;;1.65;;
35114;SDS011;21292;52.416;13.046;2022-09-29T13:54:27;2.05;;;1.70;;
35114;SDS011;21292;52.416;13.046;2022-09-29T13:57:07;1.70;;;1.60;;
35114;SDS011;21292;52.416;13.046;2022-09-29T14:03:03;1.88;;;1.77;;
35114;SDS011;21292;52.416;13.046;2022-09-29T14:08:52;3.03;;;1.90;;
35114;SDS011;21292;52.416;13.046;2022-09-29T14:11:23;2.38;;;1.95;;
35114;SDS011;21292;52.416;13.046;2022-09-29T14:13:56;1.77;;;1.60;;
35114;SDS011;21292;52.416;13.046;2022-09-29T14:16:29;3.25;;;1.83;;
35114;SDS011;21292;52.416;13.046;2022-09-29T14:19:01;2.28;;;1.85;;
35114;SDS011;21292;52.416;13.046;2022-09-29T14:21:47;2.47;;;1.88;;
35114;SDS011;21292;52.416;13.046;2022-09-29T14:27:29;1.70;;;1.60;;
35114;SDS011;21292;52.416;13.046;2022-09-29T14:30:11;2.67;;;1.70;;
35114;SDS011;21292;52.416;13.046;2022-09-29T14:32:44;1.75;;;1.55;;
35114;SDS011;21292;52.416;13.046;2022-09-29T14:35:16;2.78;;;1.83;;
35114;SDS011;21292;52.416;13.046;2022-09-29T14:37:49;1.40;;;1.30;;
35114;SDS011;21292;52.416;13.046;2022-09-29T14:40:24;1.95;;;1.50;;
35114;SDS011;21292;52.416;13.046;2022-09-29T14:43:07;2.20;;;1.70;;
35114;SDS011;21292;52.416;13.046;2022-09-29T14:48:35;2.45;;;1.48;;
35114;SDS011;21292;52.416;13.046;2022-09-29T14:51:24;1.60;;;1.50;;
35114;SDS011;21292;52.416;13.046;2022-09-29T14:54:15;1.95;;;1.55;;
35114;SDS011;21292;52.416;13.046;2022-09-29T14:56:52;4.75;;;1.88;;
35114;SDS011;21292;52.416;13.046;2022-09-29T14:59:29;3.33;;;2.00;;
35114;SDS011;21292;52.416;13.046;2022-09-29T15:02:12;2.30;;;1.60;;
35114;SDS011;21292;52.416;13.046;2022-09-29T15:04:46;1.95;;;1.63;;
35114;SDS011;21292;52.416;13.046;2022-09-29T15:07:15;2.83;;;1.40;;
35114;SDS011;21292;52.416;13.046;2022-09-29T15:09:46;2.17;;;1.93;;
35114;SDS011;21292;52.416;13.046;2022-09-29T15:12:18;3.47;;;1.83;;
35114;SDS011;21292;52.416;13.046;2022-09-29T15:14:47;5.82;;;2.72;;
35114;SDS011;21292;52.416;13.046;2022-09-29T15:17:19;3.35;;;2.00;;
35114;SDS011;21292;52.416;13.046;2022-09-29T15:19:58;37.63;;;8.32;;
35114;SDS011;21292;52.416;13.046;2022-09-29T15:22:32;395.67;;;81.28;;
35114;SDS011;21292;52.416;13.046;2022-09-29T15:25:27;6.97;;;2.55;;
35114;SDS011;21292;52.416;13.046;2022-09-29T15:27:58;3.97;;;2.15;;
35114;SDS011;21292;52.416;13.046;2022-09-29T15:30:27;2.90;;;1.90;;
35114;SDS011;21292;52.416;13.046;2022-09-29T15:33:03;2.50;;;1.90;;
35114;SDS011;21292;52.416;13.046;2022-09-29T15:35:48;3.20;;;1.70;;
35114;SDS011;21292;52.416;13.046;2022-09-29T15:38:28;2.92;;;1.90;;